ADDS METAR Data

Data at: 1836 UTC 20 Jul 2018

METAR for:KHYA (Hyannis/Barnstable M, MA, US)
Text:KHYA 201756Z 17006KT 10SM CLR 24/16 A3018 RMK AO2 SLP221 T02390156 10272 20222 51001
Temperature: 23.9°C ( 75°F)
Dewpoint: 15.6°C ( 60°F) [RH = 60%]
Pressure (altimeter):30.18 inches Hg (1022.1 mb) [Sea level pressure: 1022.1 mb]
Winds:from the S (170 degrees) at 7 MPH (6 knots; 3.1 m/s)
Visibility:10 or more sm (16+ km)
Ceiling:at least 12,000 feet AGL
Clouds:sky clear below 12,000 feet AGL